createdAt,value
2023-01-20T00:02:27.049Z,8.40
2023-01-20T00:07:31.307Z,9.03
2023-01-20T00:12:34.148Z,9.10
2023-01-20T00:17:37.131Z,9.83
2023-01-20T00:22:42.386Z,9.50
2023-01-20T00:27:46.678Z,9.23
2023-01-20T00:32:49.597Z,9.30
2023-01-20T00:37:53.873Z,9.50
2023-01-20T00:42:56.789Z,10.30
2023-01-20T00:47:59.745Z,10.20
2023-01-20T00:53:04.024Z,10.07
2023-01-20T00:58:06.976Z,9.30
2023-01-20T01:03:11.205Z,10.87
2023-01-20T01:08:15.772Z,10.40
2023-01-20T01:13:18.677Z,11.30
2023-01-20T01:18:21.576Z,11.27
2023-01-20T01:23:25.922Z,11.83
2023-01-20T01:28:28.848Z,12.50
2023-01-20T01:33:32.022Z,11.57
2023-01-20T01:38:36.632Z,12.93
2023-01-20T01:43:40.782Z,12.97
2023-01-20T01:48:46.539Z,12.57
2023-01-20T01:53:57.488Z,12.00
2023-01-20T01:59:03.697Z,12.00
2023-01-20T02:04:12.266Z,14.10
2023-01-20T02:09:16.827Z,12.40
2023-01-20T02:14:23.721Z,14.07
2023-01-20T02:19:52.791Z,12.90
2023-01-20T02:25:34.827Z,15.83
2023-01-20T02:30:56.396Z,12.20
2023-01-20T02:36:04.570Z,13.23
2023-01-20T02:41:12.708Z,13.70
2023-01-20T02:46:21.331Z,14.30
2023-01-20T02:51:30.960Z,14.40
2023-01-20T02:56:35.893Z,13.73
2023-01-20T03:01:42.572Z,13.80
2023-01-20T03:06:50.758Z,13.53
2023-01-20T03:11:59.967Z,13.10
2023-01-20T03:17:03.139Z,12.20
2023-01-20T03:22:07.661Z,13.17
2023-01-20T03:27:11.491Z,10.97
2023-01-20T03:32:15.399Z,12.53
2023-01-20T03:37:19.831Z,11.80
2023-01-20T03:42:30.492Z,13.37
2023-01-20T03:47:52.757Z,12.93
2023-01-20T03:53:01.776Z,12.60
2023-01-20T03:58:08.726Z,13.73
2023-01-20T04:03:16.977Z,12.97
2023-01-20T04:08:25.711Z,14.40
2023-01-20T04:13:28.613Z,13.77
2023-01-20T04:18:31.555Z,12.50
2023-01-20T04:23:41.044Z,13.87
2023-01-20T04:28:43.941Z,13.77
2023-01-20T04:33:46.914Z,13.70
2023-01-20T04:38:51.229Z,13.07
2023-01-20T04:43:54.178Z,14.13
2023-01-20T04:48:57.120Z,13.80
2023-01-20T04:54:01.572Z,13.13
2023-01-20T04:59:04.880Z,14.03
2023-01-20T05:04:07.870Z,13.50
2023-01-20T05:09:15.207Z,14.13
2023-01-20T05:14:18.074Z,13.60
2023-01-20T05:19:21.001Z,15.03
2023-01-20T05:24:25.657Z,14.03
2023-01-20T05:29:28.700Z,14.80
2023-01-20T05:34:31.680Z,15.83
2023-01-20T05:39:35.963Z,15.93
2023-01-20T05:44:38.833Z,15.87
2023-01-20T05:49:41.889Z,13.73
2023-01-20T05:54:46.194Z,13.30
2023-01-20T05:59:49.633Z,13.10
2023-01-20T06:04:52.612Z,14.73
2023-01-20T06:09:56.876Z,13.60
2023-01-20T06:14:59.774Z,13.70
2023-01-20T06:20:04.329Z,14.27
2023-01-20T06:25:09.307Z,14.80
2023-01-20T06:30:12.890Z,15.13
2023-01-20T06:35:16.574Z,15.03
2023-01-20T06:40:21.172Z,14.33
2023-01-20T06:45:24.452Z,15.40
2023-01-20T06:50:27.445Z,14.20
2023-01-20T06:55:31.711Z,16.17
2023-01-20T07:00:34.668Z,15.00
2023-01-20T07:05:37.678Z,15.67
2023-01-20T07:10:42.229Z,14.10
2023-01-20T07:15:45.298Z,15.10
2023-01-20T07:20:48.282Z,16.03
2023-01-20T07:25:59.717Z,15.30
2023-01-20T07:31:04.942Z,15.97
2023-01-20T07:36:09.227Z,14.77
2023-01-20T07:41:16.399Z,15.83
2023-01-20T07:46:19.469Z,14.17
2023-01-20T07:51:22.473Z,14.80
2023-01-20T07:56:29.609Z,14.50
2023-01-20T08:01:33.745Z,14.93
2023-01-20T08:06:36.821Z,15.37
2023-01-20T08:11:41.339Z,14.70
2023-01-20T08:16:44.323Z,16.70
2023-01-20T08:21:47.396Z,16.67
2023-01-20T08:26:51.949Z,14.73
2023-01-20T08:31:55.022Z,14.63
2023-01-20T08:36:58.027Z,13.87
2023-01-20T08:42:02.281Z,12.80
2023-01-20T08:47:05.203Z,13.87
2023-01-20T08:52:08.159Z,14.03
2023-01-20T08:57:12.843Z,15.00
2023-01-20T09:02:15.810Z,17.57
2023-01-20T09:07:20.206Z,14.67
2023-01-20T09:12:24.477Z,14.70
2023-01-20T09:17:27.464Z,16.87
2023-01-20T09:22:30.286Z,15.80
2023-01-20T09:27:34.801Z,18.90
2023-01-20T09:32:37.701Z,17.97
2023-01-20T09:37:57.961Z,17.50
2023-01-20T09:43:32.316Z,16.20
2023-01-20T09:49:03.837Z,16.87
2023-01-20T09:54:15.539Z,17.87
2023-01-20T09:59:25.958Z,16.70
2023-01-20T10:04:34.778Z,18.23
2023-01-20T10:09:42.082Z,19.03
2023-01-20T10:14:53.853Z,18.23
2023-01-20T10:20:04.060Z,18.30
2023-01-20T10:25:13.420Z,21.13
2023-01-20T10:30:18.870Z,19.57
2023-01-20T10:35:25.352Z,17.80
2023-01-20T10:40:35.592Z,16.17
2023-01-20T10:45:55.286Z,16.30
2023-01-20T10:51:06.078Z,16.33
2023-01-20T10:56:26.920Z,17.60
2023-01-20T11:01:31.494Z,17.37
2023-01-20T11:06:34.521Z,17.33
2023-01-20T11:11:38.056Z,15.93
2023-01-20T11:16:46.755Z,16.03
2023-01-20T11:21:49.876Z,16.63
2023-01-20T11:26:52.943Z,18.70
2023-01-20T11:31:59.569Z,16.50
2023-01-20T11:37:18.834Z,19.93
2023-01-20T11:42:25.013Z,19.60
2023-01-20T11:47:31.417Z,21.30
2023-01-20T11:52:36.315Z,19.70
2023-01-20T11:57:40.411Z,19.23
2023-01-20T12:02:45.816Z,19.37
2023-01-20T12:07:53.330Z,19.53
2023-01-20T12:13:02.413Z,19.13
2023-01-20T12:18:13.992Z,20.13
2023-01-20T12:23:22.166Z,18.43
2023-01-20T12:28:32.202Z,20.40
2023-01-20T12:33:39.870Z,20.40
2023-01-20T12:38:54.472Z,18.70
2023-01-20T12:44:05.530Z,19.77
2023-01-20T12:49:37.119Z,18.90
2023-01-20T12:55:00.427Z,18.73
2023-01-20T13:00:31.371Z,18.60
2023-01-20T13:06:18.093Z,19.90
2023-01-20T13:11:31.919Z,21.17
2023-01-20T13:16:42.711Z,20.33
2023-01-20T13:22:02.861Z,21.70
2023-01-20T13:27:12.186Z,21.03
2023-01-20T13:32:29.497Z,21.17
2023-01-20T13:37:37.864Z,20.90
2023-01-20T13:42:51.995Z,21.07
2023-01-20T13:47:58.564Z,21.00
2023-01-20T13:53:14.857Z,19.67
2023-01-20T13:58:19.265Z,19.60
2023-01-20T14:03:24.728Z,21.57
2023-01-20T14:08:31.467Z,20.03
2023-01-20T14:13:34.460Z,24.47
2023-01-20T14:18:37.972Z,21.67
2023-01-20T14:23:42.639Z,19.60
2023-01-20T14:28:48.674Z,18.90
2023-01-20T14:33:57.935Z,20.93
2023-01-20T14:39:04.474Z,20.97
2023-01-20T14:44:18.032Z,18.23
2023-01-20T14:49:23.779Z,22.10
2023-01-20T14:54:44.074Z,19.70
2023-01-20T14:59:47.400Z,21.07
2023-01-20T15:04:50.357Z,22.67
2023-01-20T15:10:02.558Z,22.90
2023-01-20T15:15:21.903Z,19.80
2023-01-20T15:20:28.663Z,20.17
2023-01-20T15:25:38.022Z,20.00
2023-01-20T15:30:41.031Z,21.50
2023-01-20T15:35:43.956Z,21.57
2023-01-20T15:40:48.688Z,20.13
2023-01-20T15:45:51.604Z,19.87
2023-01-20T15:50:54.581Z,21.33
2023-01-20T15:56:00.422Z,20.40
2023-01-20T16:01:03.346Z,22.40
2023-01-20T16:06:12.826Z,20.13
2023-01-20T16:11:18.907Z,19.70
2023-01-20T16:16:23.664Z,21.27
2023-01-20T16:21:26.892Z,20.90
2023-01-20T16:26:34.948Z,22.27
2023-01-20T16:31:37.898Z,19.90
2023-01-20T16:36:40.869Z,19.17
2023-01-20T16:41:49.307Z,20.03
2023-01-20T16:46:52.280Z,20.20
2023-01-20T16:51:55.207Z,19.90
2023-01-20T16:56:59.515Z,19.37
2023-01-20T17:02:02.536Z,18.23
2023-01-20T17:07:05.847Z,20.27
2023-01-20T17:12:10.347Z,19.47
2023-01-20T17:17:13.255Z,20.43
2023-01-20T17:22:17.385Z,19.37
2023-01-20T17:27:21.816Z,17.73
2023-01-20T17:32:24.751Z,21.37
2023-01-20T17:37:27.689Z,19.30
2023-01-20T17:42:31.906Z,17.47
2023-01-20T17:47:34.766Z,19.23
2023-01-20T17:52:37.755Z,19.00
2023-01-20T17:57:42.057Z,19.30
2023-01-20T18:02:44.984Z,19.30
2023-01-20T18:07:49.541Z,19.13
2023-01-20T18:12:53.785Z,19.10
2023-01-20T18:17:57.110Z,18.13
2023-01-20T18:23:00.097Z,17.17
2023-01-20T18:28:04.464Z,17.00
2023-01-20T18:33:07.400Z,14.27
2023-01-20T18:38:10.373Z,12.27
2023-01-20T18:43:14.592Z,11.63
2023-01-20T18:48:17.859Z,13.67
2023-01-20T18:53:20.742Z,13.90
2023-01-20T18:58:27.389Z,14.27
2023-01-20T19:03:30.380Z,15.53
2023-01-20T19:08:33.752Z,14.90
2023-01-20T19:13:38.009Z,12.23
2023-01-20T19:18:41.313Z,14.60
2023-01-20T19:23:45.053Z,13.50
2023-01-20T19:28:56.817Z,13.20
2023-01-20T19:34:00.337Z,15.97
2023-01-20T19:39:03.716Z,17.20
2023-01-20T19:44:08.522Z,15.70
2023-01-20T19:49:12.178Z,16.27
2023-01-20T19:54:15.255Z,15.83
2023-01-20T19:59:19.552Z,16.20
2023-01-20T20:04:24.083Z,15.40
2023-01-20T20:09:27.011Z,15.53
2023-01-20T20:14:31.433Z,15.27
2023-01-20T20:19:35.037Z,20.00
2023-01-20T20:24:38.011Z,17.13
2023-01-20T20:29:42.338Z,15.20
2023-01-20T20:34:45.200Z,15.40
2023-01-20T20:39:48.089Z,16.10
2023-01-20T20:44:52.405Z,12.33
2023-01-20T20:49:55.319Z,12.13
2023-01-20T20:54:58.200Z,13.80
2023-01-20T21:00:02.486Z,13.43
2023-01-20T21:05:05.922Z,13.00
2023-01-20T21:10:11.410Z,15.23
2023-01-20T21:15:17.870Z,14.37
2023-01-20T21:20:20.719Z,15.70
2023-01-20T21:25:24.170Z,14.67
2023-01-20T21:30:28.628Z,15.50
2023-01-20T21:35:31.604Z,14.80
2023-01-20T21:40:34.922Z,16.43
2023-01-20T21:45:39.255Z,15.33
2023-01-20T21:50:59.499Z,16.03
2023-01-20T21:56:02.472Z,16.67
2023-01-20T22:01:06.966Z,16.63
2023-01-20T22:06:10.558Z,18.37
2023-01-20T22:11:13.650Z,18.10
2023-01-20T22:16:17.871Z,19.97
2023-01-20T22:21:21.771Z,16.73
2023-01-20T22:26:24.705Z,20.73
2023-01-20T22:31:30.230Z,16.70
2023-01-20T22:36:33.881Z,17.97
2023-01-20T22:41:36.761Z,18.80
2023-01-20T22:46:41.028Z,18.90
2023-01-20T22:51:43.909Z,15.63
2023-01-20T22:56:46.770Z,17.37
2023-01-20T23:01:51.090Z,13.13
2023-01-20T23:06:53.976Z,15.50
2023-01-20T23:11:56.834Z,15.77
2023-01-20T23:17:01.166Z,14.83
2023-01-20T23:22:04.091Z,16.00
2023-01-20T23:27:06.949Z,13.57
2023-01-20T23:32:11.373Z,15.40
2023-01-20T23:37:14.286Z,17.87
2023-01-20T23:42:18.817Z,16.83
2023-01-20T23:47:23.180Z,13.40
2023-01-20T23:52:26.954Z,13.50
2023-01-20T23:57:29.831Z,13.40
